Flight Track Log - Related Links

Times and Time Zones

All times are in EDT time to prevent confusion due to time zone crossing. See the EJA846 flight status page for this flight to view local times or setup timezone preferences in your user account.

Time Position Orientation Groundspeed Altitude Reporting Facility
EDT Latitude Longitude Course Direction KTS MPH feet Rate Location/Type
Tue 09:35:15 AM 27.6475 -80.3944 330° Northwest 411 473 1,100  Level Miami Center
Tue 09:36:15 AM 27.6639 -80.3292 74° East 242 278 3,000 2,300 Climbing Miami Center
Tue 09:37:15 AM 27.7008 -80.2647 57° Northeast 227 261 5,700 2,900 Climbing Miami Center
Tue 09:38:15 AM 27.7583 -80.3017 330° Northwest 186 214 8,800 2,500 Climbing Miami Center
Tue 09:39:15 AM 27.7814 -80.3892 287° West 222 255 10,700 2,950 Climbing Miami Center
Tue 09:40:00 AM 28.2287 -80.7969 330° Northwest  Level FlightAware Approximate
Tue 09:40:15 AM 27.8144 -80.4817 292° West 269 310 14,700  Level Miami Center
Tue 09:41:15 AM 27.8417 -80.5672 290° West 288 331 17,300 2,200 Climbing Miami Center
Tue 09:42:15 AM 27.8603 -80.6475 285° West 294 338 19,100 1,900 Climbing Miami Center
Tue 09:43:15 AM 27.8850 -80.7447 286° West 306 352 21,100 1,950 Climbing Miami Center
Tue 09:44:15 AM 27.9136 -80.8419 288° West 320 368 23,000 2,150 Climbing Miami Center
Tue 09:45:15 AM 27.9422 -80.9417 288° West 326 375 25,400 1,900 Climbing Miami Center
Tue 09:46:15 AM 27.9750 -81.0344 292° West 326 375 26,800 1,650 Climbing Miami Center
Tue 09:47:15 AM 28.0092 -81.1439 289° West 332 382 28,700 2,100 Climbing Miami Center
Tue 09:48:15 AM 28.0442 -81.2322 294° West 323 372 31,000 1,900 Climbing Miami Center
Tue 09:49:15 AM 28.1156 -81.2892 325° Northwest 310 357 32,500 1,550 Climbing Miami Center
Tue 09:50:15 AM 28.2047 -81.3022 353° North 315 362 34,100 1,800 Climbing Miami Center
Tue 09:51:15 AM 28.3108 -81.3133 355° North 335 386 36,100 1,550 Climbing Miami Center
Tue 09:52:15 AM 28.3942 -81.3214 355° North 335 386 37,200 1,200 Climbing Miami Center
Tue 09:53:15 AM 28.4919 -81.3300 356° North 342 394 38,500 900 Climbing Miami Center
Tue 09:54:15 AM 28.5875 -81.3408 354° North 348 400 39,000 250 Climbing Miami Center
Tue 09:55:15 AM 28.6894 -81.3494 356° North 352 405 39,000  Level Jacksonville Center
Tue 09:56:15 AM 28.8003 -81.3619 354° North 376 433 39,000  Level Jacksonville Center
Tue 09:57:15 AM 28.9131 -81.3744 354° North 394 453 39,000  Level Jacksonville Center
Tue 09:58:16 AM 29.0322 -81.3822 357° North 409 471 39,000  Level Jacksonville Center
Tue 09:59:15 AM 29.1450 -81.3972 353° North 414 476 39,000  Level Jacksonville Center
Tue 10:00:15 AM 29.2619 -81.4050 357° North 414 476 39,000  Level Jacksonville Center
Tue 10:01:16 AM 29.3750 -81.4197 354° North 414 476 39,000  Level Jacksonville Center
Tue 10:02:16 AM 29.4961 -81.4300 356° North 402 463 39,000  Level Jacksonville Center
Tue 10:03:16 AM 29.6089 -81.4403 355° North 402 463 39,000  Level Jacksonville Center
Tue 10:04:15 AM 29.7219 -81.4506 355° North 407 468 39,000  Level Jacksonville Center
Tue 10:05:15 AM 29.8367 -81.4608 356° North 407 468 39,000  Level Jacksonville Center
Tue 10:06:15 AM 29.9517 -81.4733 355° North 407 468 39,000  Level Jacksonville Center
Tue 10:07:15 AM 30.0625 -81.4839 355° North 407 468 39,000  Level Jacksonville Center
Tue 10:08:16 AM 30.1775 -81.4942 356° North 407 468 39,000  Level Jacksonville Center
Tue 10:09:16 AM 30.2944 -81.4972 359° North 407 468 39,000  Level Jacksonville Center
Tue 10:10:16 AM 30.4111 -81.4764 North 407 468 39,000  Level Jacksonville Center
Tue 10:11:16 AM 30.5194 -81.4578 North 421 484 39,000  Level Jacksonville Center
Tue 10:12:16 AM 30.6342 -81.4417 North 426 490 39,000  Level Jacksonville Center
Tue 10:13:16 AM 30.7486 -81.4253 North 421 484 39,000  Level Jacksonville Center
Tue 10:14:16 AM 30.8592 -81.4019 10° North 415 478 39,000  Level Jacksonville Center
Tue 10:15:16 AM 30.9669 -81.3394 26° Northeast 408 470 39,000  Level Jacksonville Center
Tue 10:16:16 AM 31.0725 -81.2700 29° Northeast 415 478 39,000  Level Jacksonville Center
Tue 10:17:16 AM 31.1781 -81.2000 30° Northeast 425 489 39,000  Level Jacksonville Center
Tue 10:18:16 AM 31.2817 -81.1278 31° Northeast 430 495 39,000  Level Jacksonville Center
Tue 10:19:16 AM 31.3869 -81.0575 30° Northeast 435 501 39,000  Level Jacksonville Center
Tue 10:20:16 AM 31.5069 -80.9822 28° Northeast 440 506 39,000  Level Jacksonville Center
Tue 10:21:16 AM 31.6019 -80.9144 31° Northeast 441 507 39,000  Level Jacksonville Center
Tue 10:22:16 AM 31.7239 -80.8336 29° Northeast 441 507 39,000  Level Jacksonville Center
Tue 10:23:16 AM 31.8314 -80.7653 28° Northeast 441 507 39,000  Level Jacksonville Center
Tue 10:24:16 AM 31.9303 -80.6967 30° Northeast 441 507 39,000  Level Jacksonville Center
Tue 10:25:15 AM 32.0522 -80.6181 29° Northeast 441 507 39,000  Level Jacksonville Center
Tue 10:26:16 AM 32.1572 -80.5442 31° Northeast 441 507 39,000  Level Jacksonville Center
Tue 10:27:16 AM 32.2644 -80.4700 30° Northeast 440 506 39,000  Level Jacksonville Center
Tue 10:28:16 AM 32.3717 -80.3961 30° Northeast 440 506 39,000  Level Jacksonville Center
Tue 10:29:16 AM 32.4808 -80.3217 30° Northeast 447 514 39,000  Level Jacksonville Center
Tue 10:30:16 AM 32.5817 -80.2547 29° Northeast 447 514 39,000  Level Jacksonville Center
Tue 10:31:16 AM 32.6864 -80.1800 31° Northeast 447 514 39,000  Level Jacksonville Center
Tue 10:32:16 AM 32.7933 -80.1050 31° Northeast 441 507 39,000  Level Jacksonville Center
Tue 10:33:16 AM 32.8983 -80.0303 31° Northeast 441 507 39,000  Level Jacksonville Center
Tue 10:34:16 AM 33.0050 -79.9525 31° Northeast 441 507 39,000  Level Jacksonville Center
Tue 10:35:16 AM 33.1117 -79.8794 30° Northeast 441 507 39,000  Level Jacksonville Center
Tue 10:36:16 AM 33.2183 -79.8014 31° Northeast 441 507 39,000  Level Jacksonville Center
Tue 10:37:16 AM 33.3231 -79.7256 31° Northeast 441 507 39,000  Level Jacksonville Center
Tue 10:38:16 AM 33.4275 -79.6472 32° Northeast 441 507 39,000  Level Jacksonville Center
Tue 10:39:16 AM 33.5319 -79.5736 30° Northeast 436 502 39,000  Level Jacksonville Center
Tue 10:40:16 AM 33.6342 -79.4975 32° Northeast 436 502 39,000  Level Jacksonville Center
Tue 10:41:16 AM 33.7467 -79.4133 32° Northeast 434 499 39,000  Level Jacksonville Center
Tue 10:42:16 AM 33.8511 -79.3392 31° Northeast 434 499 39,000  Level Jacksonville Center
Tue 10:43:16 AM 33.9511 -79.2625 32° Northeast 434 499 39,000  Level Jacksonville Center
Tue 10:45:25 AM 34.1683 -79.1033 31° Northeast 458 527 39,000  Level Washington Center
Tue 10:46:27 AM 34.2708 -79.0247 32° Northeast 458 527 39,000  Level Washington Center
Tue 10:47:27 AM 34.3753 -78.9461 32° Northeast 453 521 39,000  Level Washington Center
Tue 10:48:24 AM 34.4797 -78.8672 32° Northeast 448 516 39,000  Level Washington Center
Tue 10:49:26 AM 34.5842 -78.7856 33° Northeast 448 516 39,000  Level Washington Center
Tue 10:50:26 AM 34.6864 -78.7036 33° Northeast 443 510 39,000  Level Washington Center
Tue 10:51:27 AM 34.7928 -78.6244 31° Northeast 443 510 39,000  Level Washington Center
Tue 10:52:25 AM 34.8906 -78.5469 33° Northeast 436 502 39,000  Level Washington Center
Tue 10:53:26 AM 34.9928 -78.4669 33° Northeast 436 502 39,000  Level Washington Center
Tue 10:54:26 AM 35.0947 -78.3894 32° Northeast 430 495 39,000  Level Washington Center
Tue 10:55:26 AM 35.1989 -78.3117 31° Northeast 430 495 39,000  Level Washington Center
Tue 10:56:27 AM 35.2986 -78.2336 33° Northeast 430 495 39,000  Level Washington Center
Tue 10:57:25 AM 35.4006 -78.1556 32° Northeast 425 489 39,000  Level Washington Center
Tue 10:58:27 AM 35.5022 -78.0772 32° Northeast 425 489 39,000  Level Washington Center
Tue 10:59:27 AM 35.6019 -77.9983 33° Northeast 425 489 39,000  Level Washington Center
Tue 11:00:25 AM 35.6994 -77.9219 32° Northeast 420 483 39,000 -51 Level Washington Center
Tue 11:01:25 AM 35.8011 -77.8456 31° Northeast 420 483 38,900  Descending Washington Center
Tue 11:02:25 AM 35.9006 -77.7664 33° Northeast 420 483 39,000 50 Climbing Washington Center
Tue 11:03:26 AM 35.9958 -77.6844 35° Northeast 420 483 39,000  Level Washington Center
Tue 11:04:27 AM 36.0872 -77.5942 39° Northeast 420 483 39,000  Level Washington Center
Tue 11:05:24 AM 36.1783 -77.4989 40° Northeast 420 483 39,000  Level Washington Center
Tue 11:06:25 AM 36.2611 -77.4081 41° Northeast 413 475 39,000  Level Washington Center
Tue 11:07:26 AM 36.3522 -77.3172 39° Northeast 408 470 39,000  Level Washington Center
Tue 11:08:26 AM 36.4414 -77.2186 42° Northeast 414 476 39,000  Level Washington Center
Tue 11:09:24 AM 36.5303 -77.1222 41° Northeast 414 476 39,000  Level Washington Center
Tue 11:10:25 AM 36.6211 -77.0256 40° Northeast 414 476 39,000  Level Washington Center
Tue 11:11:25 AM 36.7097 -76.9314 40° Northeast 414 476 39,000  Level Washington Center
Tue 11:12:26 AM 36.8006 -76.8344 41° Northeast 414 476 39,000  Level Washington Center
Tue 11:13:26 AM 36.8911 -76.7372 41° Northeast 414 476 39,000  Level Washington Center
Tue 11:14:25 AM 36.9922 -76.6269 41° Northeast 424 488 39,000  Level Washington Center
Tue 11:15:25 AM 37.0828 -76.5317 40° Northeast 424 488 39,000  Level Washington Center
Tue 11:16:26 AM 37.1733 -76.4339 41° Northeast 424 488 39,000  Level Washington Center
Tue 11:17:27 AM 37.2614 -76.3381 41° Northeast 424 488 39,000  Level Washington Center
Tue 11:18:24 AM 37.3497 -76.2397 41° Northeast 424 488 39,000  Level Washington Center
Tue 11:19:26 AM 37.4419 -76.1489 38° Northeast 419 482 39,000  Level Washington Center
Tue 11:20:27 AM 37.5300 -76.0528 41° Northeast 414 476 39,000  Level Washington Center
Tue 11:21:25 AM 37.6178 -75.9561 41° Northeast 419 482 39,000  Level Washington Center
Tue 11:22:25 AM 37.7078 -75.8622 40° Northeast 419 482 39,000  Level Washington Center
Tue 11:23:26 AM 37.7956 -75.7600 43° Northeast 414 476 39,000  Level Washington Center
Tue 11:24:27 AM 37.8833 -75.6628 41° Northeast 414 476 39,000  Level Washington Center
Tue 11:25:25 AM 37.9708 -75.5681 40° Northeast 414 476 39,000  Level Washington Center
Tue 11:26:26 AM 38.0583 -75.4706 41° Northeast 409 471 39,000  Level Washington Center
Tue 11:27:27 AM 38.1606 -75.4042 27° Northeast 409 471 39,000  Level Washington Center
Tue 11:28:25 AM 38.2625 -75.3431 25° Northeast 404 465 39,000  Level Washington Center
Tue 11:29:25 AM 38.3583 -75.2739 30° Northeast 399 459 39,000  Level Washington Center
Tue 11:30:27 AM 38.4603 -75.2125 25° Northeast 399 459 39,000  Level Washington Center
Tue 11:31:25 AM 38.5622 -75.1431 28° Northeast 399 459 39,000  Level Washington Center
Tue 11:32:25 AM 38.6642 -75.0811 25° Northeast 404 465 39,000  Level Washington Center
Tue 11:33:26 AM 38.7681 -75.0139 27° Northeast 404 465 39,000  Level Washington Center
Tue 11:34:27 AM 38.8719 -74.9492 26° Northeast 404 465 39,000 -153 Level Washington Center
Tue 11:35:24 AM 38.9736 -74.8786 28° Northeast 404 465 38,700 -1,210 Descending Washington Center
Tue 11:36:26 AM 39.0775 -74.8136 26° Northeast 404 465 36,600 -2,066 Descending Washington Center
Tue 11:37:26 AM 39.1664 -74.7297 36° Northeast 398 458 34,500 -2,200 Descending Washington Center
Tue 11:38:26 AM 39.2575 -74.6319 40° Northeast 405 466 32,200 -2,262 Descending Washington Center
Tue 11:40:29 AM 39.4436 -74.4431 38° Northeast 427 491 27,600 -2,250 Descending New York Center
Tue 11:41:30 AM 39.5364 -74.3428 40° Northeast 433 498 25,300 -1,866 Descending New York Center
Tue 11:42:28 AM 39.6244 -74.2531 38° Northeast 428 493 23,900 -1,311 Descending New York Center
Tue 11:43:29 AM 39.7106 -74.1603 40° Northeast 406 467 22,700 -1,377 Descending New York Center
Tue 11:44:30 AM 39.7944 -74.0697 40° Northeast 401 461 21,100 -893 Descending New York Center
Tue 11:45:30 AM 39.8911 -74.0392 14° North 355 409 20,900 -51 Descending New York Center
Tue 11:46:28 AM 39.9911 -74.0411 359° North 349 402 21,000 -303 Climbing New York Center
Tue 11:47:29 AM 40.0650 -73.9361 47° Northeast 354 407 20,300 -723 Descending New York Center
Tue 11:49:14 AM 40.1817 -73.7464 51° Northeast 361 415 19,000 -727 Descending Boston Center
Tue 11:50:14 AM 40.2475 -73.6444 50° Northeast 366 421 18,300 -550 Descending Boston Center
Tue 11:51:14 AM 40.3153 -73.5422 49° Northeast 366 421 17,900 -550 Descending Boston Center
Tue 11:52:14 AM 40.3847 -73.4508 45° Northeast 366 421 17,200 -450 Descending Boston Center
Tue 11:53:14 AM 40.4789 -73.4194 14° North 339 390 17,000 -100 Descending Boston Center
Tue 11:54:14 AM 40.5750 -73.3853 15° North 339 390 17,000  Level Boston Center
Tue 11:55:14 AM 40.6711 -73.3514 15° North 345 397 17,000 -844 Level Boston Center
Tue 11:56:22 AM 40.7833 -73.3000 19° North 360 414 15,200 -891 Descending New York TRACON
Tue 11:57:22 AM 40.8500 -73.2000 49° Northeast 353 406 15,100 -1,100 Descending New York TRACON
Tue 11:58:22 AM 40.9000 -73.1000 56° Northeast 349 402 13,000 -2,050 Descending New York TRACON
Tue 11:59:22 AM 40.9333 -73.0000 66° East 277 319 11,000 -1,850 Descending New York TRACON
Tue 12:00:22 PM 41.0000 -73.0000 360° North 290 334 9,300 -1,700 Descending New York TRACON
Tue 12:01:22 PM 41.0500 -73.0833 309° West 288 331 7,600 -1,700 Descending New York TRACON
Tue 12:02:22 PM 41.0833 -73.1833 294° West 280 322 5,900 -1,650 Descending New York TRACON
Tue 12:03:22 PM 41.1000 -73.2667 285° West 271 312 4,300 -900 Descending New York TRACON
Tue 12:04:22 PM 41.1333 -73.3667 294° West 271 312 4,100 -150 Descending New York TRACON
Tue 12:05:22 PM 41.1667 -73.4500 298° West 268 308 4,000 -893 Descending New York TRACON
Tue 12:06:23 PM 41.1667 -73.5500 270° West 263 303 2,300 -950 Descending New York TRACON
Tue 12:07:22 PM 41.1667 -73.6333 270° West 222 255 2,100 -101 Descending New York TRACON
Tue 12:08:22 PM 41.1500 -73.7167 255° West 191 220 2,100  Level New York TRACON

Login

Don't have an account? Register now (free) for customized features, flight alerts, and more!